sensor_id;sensor_type;location;lat;lon;timestamp;P1;P2;P0
42410;PMS5003;28056;51.112;0.984;2024-02-15T00:02:09;10;10;
42410;PMS5003;28056;51.112;0.984;2024-02-15T00:04:36;12;8;
42410;PMS5003;28056;51.112;0.984;2024-02-15T00:07:03;10;10;
42410;PMS5003;28056;51.112;0.984;2024-02-15T00:09:31;12;9;
42410;PMS5003;28056;51.112;0.984;2024-02-15T00:11:59;7;7;
42410;PMS5003;28056;51.112;0.984;2024-02-15T00:14:26;8;7;
42410;PMS5003;28056;51.112;0.984;2024-02-15T00:16:54;10;10;
42410;PMS5003;28056;51.112;0.984;2024-02-15T00:19:22;9;9;
42410;PMS5003;28056;51.112;0.984;2024-02-15T00:21:50;9;8;
42410;PMS5003;28056;51.112;0.984;2024-02-15T00:24:17;7;7;
42410;PMS5003;28056;51.112;0.984;2024-02-15T00:26:45;9;8;
42410;PMS5003;28056;51.112;0.984;2024-02-15T00:29:12;8;7;
42410;PMS5003;28056;51.112;0.984;2024-02-15T00:31:40;7;7;
42410;PMS5003;28056;51.112;0.984;2024-02-15T00:34:08;7;7;
42410;PMS5003;28056;51.112;0.984;2024-02-15T00:36:36;6;6;
42410;PMS5003;28056;51.112;0.984;2024-02-15T00:39:03;9;7;
42410;PMS5003;28056;51.112;0.984;2024-02-15T00:41:31;10;9;
42410;PMS5003;28056;51.112;0.984;2024-02-15T00:43:58;9;9;
42410;PMS5003;28056;51.112;0.984;2024-02-15T00:46:26;9;7;
42410;PMS5003;28056;51.112;0.984;2024-02-15T00:48:54;7;7;
42410;PMS5003;28056;51.112;0.984;2024-02-15T00:51:22;9;8;
42410;PMS5003;28056;51.112;0.984;2024-02-15T00:53:49;10;9;
42410;PMS5003;28056;51.112;0.984;2024-02-15T00:56:17;9;7;
42410;PMS5003;28056;51.112;0.984;2024-02-15T00:58:45;6;6;
42410;PMS5003;28056;51.112;0.984;2024-02-15T01:04:47;9;7;
42410;PMS5003;28056;51.112;0.984;2024-02-15T01:07:14;8;7;
42410;PMS5003;28056;51.112;0.984;2024-02-15T01:09:41;7;7;
42410;PMS5003;28056;51.112;0.984;2024-02-15T01:12:09;8;6;
42410;PMS5003;28056;51.112;0.984;2024-02-15T01:14:37;7;7;
42410;PMS5003;28056;51.112;0.984;2024-02-15T01:17:04;8;8;
42410;PMS5003;28056;51.112;0.984;2024-02-15T01:19:32;8;7;
42410;PMS5003;28056;51.112;0.984;2024-02-15T01:22:00;9;8;
42410;PMS5003;28056;51.112;0.984;2024-02-15T01:24:28;9;9;
42410;PMS5003;28056;51.112;0.984;2024-02-15T01:26:55;7;7;
42410;PMS5003;28056;51.112;0.984;2024-02-15T01:29:23;9;9;
42410;PMS5003;28056;51.112;0.984;2024-02-15T01:31:51;8;8;
42410;PMS5003;28056;51.112;0.984;2024-02-15T01:34:18;11;9;
42410;PMS5003;28056;51.112;0.984;2024-02-15T01:36:47;13;9;
42410;PMS5003;28056;51.112;0.984;2024-02-15T01:39:14;8;8;
42410;PMS5003;28056;51.112;0.984;2024-02-15T01:41:46;9;8;
42410;PMS5003;28056;51.112;0.984;2024-02-15T01:44:13;8;7;
42410;PMS5003;28056;51.112;0.984;2024-02-15T01:46:41;8;7;
42410;PMS5003;28056;51.112;0.984;2024-02-15T01:49:09;7;7;
42410;PMS5003;28056;51.112;0.984;2024-02-15T01:51:36;12;9;
42410;PMS5003;28056;51.112;0.984;2024-02-15T01:54:04;6;6;
42410;PMS5003;28056;51.112;0.984;2024-02-15T01:56:32;6;6;
42410;PMS5003;28056;51.112;0.984;2024-02-15T01:59:00;7;7;
42410;PMS5003;28056;51.112;0.984;2024-02-15T02:01:28;6;6;
42410;PMS5003;28056;51.112;0.984;2024-02-15T02:03:58;7;6;
42410;PMS5003;28056;51.112;0.984;2024-02-15T02:06:26;6;4;
42410;PMS5003;28056;51.112;0.984;2024-02-15T02:08:54;7;7;
42410;PMS5003;28056;51.112;0.984;2024-02-15T02:11:22;6;6;
42410;PMS5003;28056;51.112;0.984;2024-02-15T02:13:49;8;8;
42410;PMS5003;28056;51.112;0.984;2024-02-15T02:16:24;8;8;
42410;PMS5003;28056;51.112;0.984;2024-02-15T02:18:53;8;8;
42410;PMS5003;28056;51.112;0.984;2024-02-15T02:21:21;7;7;
42410;PMS5003;28056;51.112;0.984;2024-02-15T02:23:51;13;9;
42410;PMS5003;28056;51.112;0.984;2024-02-15T02:26:22;8;8;
42410;PMS5003;28056;51.112;0.984;2024-02-15T02:29:06;9;8;
42410;PMS5003;28056;51.112;0.984;2024-02-15T02:31:33;8;8;
42410;PMS5003;28056;51.112;0.984;2024-02-15T02:34:01;9;7;
42410;PMS5003;28056;51.112;0.984;2024-02-15T02:36:28;9;7;
42410;PMS5003;28056;51.112;0.984;2024-02-15T02:38:56;8;7;
42410;PMS5003;28056;51.112;0.984;2024-02-15T02:41:23;9;9;
42410;PMS5003;28056;51.112;0.984;2024-02-15T02:43:51;11;7;
42410;PMS5003;28056;51.112;0.984;2024-02-15T02:46:18;8;7;
42410;PMS5003;28056;51.112;0.984;2024-02-15T02:48:46;11;8;
42410;PMS5003;28056;51.112;0.984;2024-02-15T02:51:13;8;8;
42410;PMS5003;28056;51.112;0.984;2024-02-15T02:53:41;12;8;
42410;PMS5003;28056;51.112;0.984;2024-02-15T02:56:09;9;9;
42410;PMS5003;28056;51.112;0.984;2024-02-15T02:58:37;8;8;
42410;PMS5003;28056;51.112;0.984;2024-02-15T03:01:04;9;9;
42410;PMS5003;28056;51.112;0.984;2024-02-15T03:03:32;9;9;
42410;PMS5003;28056;51.112;0.984;2024-02-15T03:06:00;11;8;
42410;PMS5003;28056;51.112;0.984;2024-02-15T03:08:28;8;8;
42410;PMS5003;28056;51.112;0.984;2024-02-15T03:10:55;7;7;
42410;PMS5003;28056;51.112;0.984;2024-02-15T03:13:23;8;8;
42410;PMS5003;28056;51.112;0.984;2024-02-15T03:15:51;6;6;
42410;PMS5003;28056;51.112;0.984;2024-02-15T03:18:18;7;7;
42410;PMS5003;28056;51.112;0.984;2024-02-15T03:20:46;7;7;
42410;PMS5003;28056;51.112;0.984;2024-02-15T03:23:14;8;6;
42410;PMS5003;28056;51.112;0.984;2024-02-15T03:25:42;7;7;
42410;PMS5003;28056;51.112;0.984;2024-02-15T03:28:09;8;7;
42410;PMS5003;28056;51.112;0.984;2024-02-15T03:30:37;7;7;
42410;PMS5003;28056;51.112;0.984;2024-02-15T03:33:05;7;7;
42410;PMS5003;28056;51.112;0.984;2024-02-15T03:35:33;6;6;
42410;PMS5003;28056;51.112;0.984;2024-02-15T03:38:00;7;6;
42410;PMS5003;28056;51.112;0.984;2024-02-15T03:40:28;7;3;
42410;PMS5003;28056;51.112;0.984;2024-02-15T03:42:56;9;4;
42410;PMS5003;28056;51.112;0.984;2024-02-15T03:45:23;3;3;
42410;PMS5003;28056;51.112;0.984;2024-02-15T03:47:51;2;2;
42410;PMS5003;28056;51.112;0.984;2024-02-15T03:50:19;2;2;
42410;PMS5003;28056;51.112;0.984;2024-02-15T03:52:47;3;3;
42410;PMS5003;28056;51.112;0.984;2024-02-15T03:55:14;3;3;
42410;PMS5003;28056;51.112;0.984;2024-02-15T03:57:42;3;2;
42410;PMS5003;28056;51.112;0.984;2024-02-15T04:00:10;3;3;
42410;PMS5003;28056;51.112;0.984;2024-02-15T04:02:38;4;4;
42410;PMS5003;28056;51.112;0.984;2024-02-15T04:05:07;3;3;
42410;PMS5003;28056;51.112;0.984;2024-02-15T04:07:36;6;4;
42410;PMS5003;28056;51.112;0.984;2024-02-15T04:10:03;4;4;
42410;PMS5003;28056;51.112;0.984;2024-02-15T04:12:32;6;4;
42410;PMS5003;28056;51.112;0.984;2024-02-15T04:15:00;2;2;
42410;PMS5003;28056;51.112;0.984;2024-02-15T04:17:27;7;7;
42410;PMS5003;28056;51.112;0.984;2024-02-15T04:19:55;7;6;
42410;PMS5003;28056;51.112;0.984;2024-02-15T04:22:23;6;6;
42410;PMS5003;28056;51.112;0.984;2024-02-15T04:24:50;8;8;
42410;PMS5003;28056;51.112;0.984;2024-02-15T04:27:18;6;6;
42410;PMS5003;28056;51.112;0.984;2024-02-15T04:29:46;6;6;
42410;PMS5003;28056;51.112;0.984;2024-02-15T04:32:18;9;9;
42410;PMS5003;28056;51.112;0.984;2024-02-15T04:34:46;10;7;
42410;PMS5003;28056;51.112;0.984;2024-02-15T04:37:13;9;8;
42410;PMS5003;28056;51.112;0.984;2024-02-15T04:39:41;10;10;
42410;PMS5003;28056;51.112;0.984;2024-02-15T04:42:09;13;11;
42410;PMS5003;28056;51.112;0.984;2024-02-15T04:44:37;8;8;
42410;PMS5003;28056;51.112;0.984;2024-02-15T04:47:05;10;8;
42410;PMS5003;28056;51.112;0.984;2024-02-15T04:49:33;11;11;
42410;PMS5003;28056;51.112;0.984;2024-02-15T04:52:00;12;12;
42410;PMS5003;28056;51.112;0.984;2024-02-15T04:54:28;10;8;
42410;PMS5003;28056;51.112;0.984;2024-02-15T04:56:56;9;9;
42410;PMS5003;28056;51.112;0.984;2024-02-15T04:59:24;10;10;
42410;PMS5003;28056;51.112;0.984;2024-02-15T05:01:51;13;12;
42410;PMS5003;28056;51.112;0.984;2024-02-15T05:04:19;12;10;
42410;PMS5003;28056;51.112;0.984;2024-02-15T05:06:47;10;10;
42410;PMS5003;28056;51.112;0.984;2024-02-15T05:09:14;8;8;
42410;PMS5003;28056;51.112;0.984;2024-02-15T05:11:42;12;12;
42410;PMS5003;28056;51.112;0.984;2024-02-15T05:14:10;10;10;
42410;PMS5003;28056;51.112;0.984;2024-02-15T05:16:37;13;12;
42410;PMS5003;28056;51.112;0.984;2024-02-15T05:19:05;12;10;
42410;PMS5003;28056;51.112;0.984;2024-02-15T05:21:32;12;11;
42410;PMS5003;28056;51.112;0.984;2024-02-15T05:24:00;12;12;
42410;PMS5003;28056;51.112;0.984;2024-02-15T05:26:27;13;12;
42410;PMS5003;28056;51.112;0.984;2024-02-15T05:28:55;12;9;
42410;PMS5003;28056;51.112;0.984;2024-02-15T05:31:22;9;9;
42410;PMS5003;28056;51.112;0.984;2024-02-15T05:33:50;12;12;
42410;PMS5003;28056;51.112;0.984;2024-02-15T05:36:19;9;9;
42410;PMS5003;28056;51.112;0.984;2024-02-15T05:38:47;9;7;
42410;PMS5003;28056;51.112;0.984;2024-02-15T05:41:16;15;10;
42410;PMS5003;28056;51.112;0.984;2024-02-15T05:43:44;14;9;
42410;PMS5003;28056;51.112;0.984;2024-02-15T05:46:12;12;9;
42410;PMS5003;28056;51.112;0.984;2024-02-15T05:48:39;12;8;
42410;PMS5003;28056;51.112;0.984;2024-02-15T05:51:07;8;8;
42410;PMS5003;28056;51.112;0.984;2024-02-15T05:53:35;7;7;
42410;PMS5003;28056;51.112;0.984;2024-02-15T05:56:02;9;7;
42410;PMS5003;28056;51.112;0.984;2024-02-15T05:58:31;6;6;
42410;PMS5003;28056;51.112;0.984;2024-02-15T06:00:59;6;6;
42410;PMS5003;28056;51.112;0.984;2024-02-15T06:03:27;9;7;
42410;PMS5003;28056;51.112;0.984;2024-02-15T06:05:55;13;12;
42410;PMS5003;28056;51.112;0.984;2024-02-15T06:08:23;13;11;
42410;PMS5003;28056;51.112;0.984;2024-02-15T06:10:50;6;6;
42410;PMS5003;28056;51.112;0.984;2024-02-15T06:13:18;6;6;
42410;PMS5003;28056;51.112;0.984;2024-02-15T06:15:46;6;6;
42410;PMS5003;28056;51.112;0.984;2024-02-15T06:18:13;7;7;
42410;PMS5003;28056;51.112;0.984;2024-02-15T06:20:41;7;7;
42410;PMS5003;28056;51.112;0.984;2024-02-15T06:23:08;4;3;
42410;PMS5003;28056;51.112;0.984;2024-02-15T06:25:35;4;4;
42410;PMS5003;28056;51.112;0.984;2024-02-15T06:28:03;7;7;
42410;PMS5003;28056;51.112;0.984;2024-02-15T06:30:31;7;7;
42410;PMS5003;28056;51.112;0.984;2024-02-15T06:32:59;8;7;
42410;PMS5003;28056;51.112;0.984;2024-02-15T06:35:27;7;7;
42410;PMS5003;28056;51.112;0.984;2024-02-15T06:37:55;7;4;
42410;PMS5003;28056;51.112;0.984;2024-02-15T06:40:22;7;6;
42410;PMS5003;28056;51.112;0.984;2024-02-15T06:42:50;7;7;
42410;PMS5003;28056;51.112;0.984;2024-02-15T06:45:18;6;6;
42410;PMS5003;28056;51.112;0.984;2024-02-15T06:47:46;7;7;
42410;PMS5003;28056;51.112;0.984;2024-02-15T06:50:13;6;6;
42410;PMS5003;28056;51.112;0.984;2024-02-15T06:52:41;4;4;
42410;PMS5003;28056;51.112;0.984;2024-02-15T06:55:09;9;7;
42410;PMS5003;28056;51.112;0.984;2024-02-15T06:57:36;9;8;
42410;PMS5003;28056;51.112;0.984;2024-02-15T07:00:04;9;4;
42410;PMS5003;28056;51.112;0.984;2024-02-15T07:02:33;6;6;
42410;PMS5003;28056;51.112;0.984;2024-02-15T07:05:06;7;6;
42410;PMS5003;28056;51.112;0.984;2024-02-15T07:07:44;3;3;
42410;PMS5003;28056;51.112;0.984;2024-02-15T07:10:11;4;4;
42410;PMS5003;28056;51.112;0.984;2024-02-15T07:12:39;6;4;
42410;PMS5003;28056;51.112;0.984;2024-02-15T07:15:07;3;3;
42410;PMS5003;28056;51.112;0.984;2024-02-15T07:17:35;4;4;
42410;PMS5003;28056;51.112;0.984;2024-02-15T07:20:02;3;3;
42410;PMS5003;28056;51.112;0.984;2024-02-15T07:22:30;13;11;
42410;PMS5003;28056;51.112;0.984;2024-02-15T07:24:58;24;19;
42410;PMS5003;28056;51.112;0.984;2024-02-15T07:27:25;35;30;
42410;PMS5003;28056;51.112;0.984;2024-02-15T07:29:53;25;23;
42410;PMS5003;28056;51.112;0.984;2024-02-15T07:32:20;23;20;
42410;PMS5003;28056;51.112;0.984;2024-02-15T07:34:47;44;34;
42410;PMS5003;28056;51.112;0.984;2024-02-15T07:37:15;30;29;
42410;PMS5003;28056;51.112;0.984;2024-02-15T07:39:42;15;13;
42410;PMS5003;28056;51.112;0.984;2024-02-15T07:42:09;12;12;
42410;PMS5003;28056;51.112;0.984;2024-02-15T07:44:37;20;17;
42410;PMS5003;28056;51.112;0.984;2024-02-15T07:47:04;15;14;
42410;PMS5003;28056;51.112;0.984;2024-02-15T07:49:32;11;9;
42410;PMS5003;28056;51.112;0.984;2024-02-15T07:51:59;6;6;
42410;PMS5003;28056;51.112;0.984;2024-02-15T07:54:27;6;6;
42410;PMS5003;28056;51.112;0.984;2024-02-15T07:56:55;4;4;
42410;PMS5003;28056;51.112;0.984;2024-02-15T07:59:22;6;6;
42410;PMS5003;28056;51.112;0.984;2024-02-15T08:01:50;6;6;
42410;PMS5003;28056;51.112;0.984;2024-02-15T08:04:18;4;4;
42410;PMS5003;28056;51.112;0.984;2024-02-15T08:06:46;6;6;
42410;PMS5003;28056;51.112;0.984;2024-02-15T08:09:14;6;6;
42410;PMS5003;28056;51.112;0.984;2024-02-15T08:11:41;8;7;
42410;PMS5003;28056;51.112;0.984;2024-02-15T08:14:09;6;6;
42410;PMS5003;28056;51.112;0.984;2024-02-15T08:16:37;4;4;
42410;PMS5003;28056;51.112;0.984;2024-02-15T08:19:04;6;3;
42410;PMS5003;28056;51.112;0.984;2024-02-15T08:21:32;3;3;
42410;PMS5003;28056;51.112;0.984;2024-02-15T08:24:01;4;4;
42410;PMS5003;28056;51.112;0.984;2024-02-15T08:26:29;6;6;
42410;PMS5003;28056;51.112;0.984;2024-02-15T08:28:57;7;7;
42410;PMS5003;28056;51.112;0.984;2024-02-15T08:31:24;6;6;
42410;PMS5003;28056;51.112;0.984;2024-02-15T08:33:52;7;3;
42410;PMS5003;28056;51.112;0.984;2024-02-15T08:36:20;6;6;
42410;PMS5003;28056;51.112;0.984;2024-02-15T08:38:48;8;4;
42410;PMS5003;28056;51.112;0.984;2024-02-15T08:41:16;6;6;
42410;PMS5003;28056;51.112;0.984;2024-02-15T08:43:44;4;4;
42410;PMS5003;28056;51.112;0.984;2024-02-15T08:46:13;6;6;
42410;PMS5003;28056;51.112;0.984;2024-02-15T08:48:41;3;3;
42410;PMS5003;28056;51.112;0.984;2024-02-15T08:51:09;6;6;
42410;PMS5003;28056;51.112;0.984;2024-02-15T08:53:36;7;4;
42410;PMS5003;28056;51.112;0.984;2024-02-15T08:56:09;4;4;
42410;PMS5003;28056;51.112;0.984;2024-02-15T08:58:37;7;6;
42410;PMS5003;28056;51.112;0.984;2024-02-15T09:01:10;7;6;
42410;PMS5003;28056;51.112;0.984;2024-02-15T09:03:47;6;6;
42410;PMS5003;28056;51.112;0.984;2024-02-15T09:06:19;6;6;
42410;PMS5003;28056;51.112;0.984;2024-02-15T09:08:47;2;2;
42410;PMS5003;28056;51.112;0.984;2024-02-15T09:11:15;4;4;
42410;PMS5003;28056;51.112;0.984;2024-02-15T09:13:42;8;4;
42410;PMS5003;28056;51.112;0.984;2024-02-15T09:16:10;6;4;
42410;PMS5003;28056;51.112;0.984;2024-02-15T09:18:38;15;12;
42410;PMS5003;28056;51.112;0.984;2024-02-15T09:21:05;27;21;
42410;PMS5003;28056;51.112;0.984;2024-02-15T09:23:32;15;9;
42410;PMS5003;28056;51.112;0.984;2024-02-15T09:26:00;39;32;
42410;PMS5003;28056;51.112;0.984;2024-02-15T09:28:28;21;13;
42410;PMS5003;28056;51.112;0.984;2024-02-15T09:30:58;6;4;
42410;PMS5003;28056;51.112;0.984;2024-02-15T09:33:25;7;7;
42410;PMS5003;28056;51.112;0.984;2024-02-15T09:35:53;9;8;
42410;PMS5003;28056;51.112;0.984;2024-02-15T09:38:20;10;8;
42410;PMS5003;28056;51.112;0.984;2024-02-15T09:40:48;8;7;
42410;PMS5003;28056;51.112;0.984;2024-02-15T09:43:16;8;6;
42410;PMS5003;28056;51.112;0.984;2024-02-15T09:45:43;7;7;
42410;PMS5003;28056;51.112;0.984;2024-02-15T09:48:11;9;9;
42410;PMS5003;28056;51.112;0.984;2024-02-15T09:50:41;13;9;
42410;PMS5003;28056;51.112;0.984;2024-02-15T09:53:11;8;8;
42410;PMS5003;28056;51.112;0.984;2024-02-15T09:55:39;8;8;
42410;PMS5003;28056;51.112;0.984;2024-02-15T09:58:07;12;8;
42410;PMS5003;28056;51.112;0.984;2024-02-15T10:00:35;10;9;
42410;PMS5003;28056;51.112;0.984;2024-02-15T10:03:02;9;9;
42410;PMS5003;28056;51.112;0.984;2024-02-15T10:05:32;9;8;
42410;PMS5003;28056;51.112;0.984;2024-02-15T10:08:00;7;7;
42410;PMS5003;28056;51.112;0.984;2024-02-15T10:10:29;4;4;
42410;PMS5003;28056;51.112;0.984;2024-02-15T10:12:56;4;4;
42410;PMS5003;28056;51.112;0.984;2024-02-15T10:15:28;3;3;
42410;PMS5003;28056;51.112;0.984;2024-02-15T10:17:58;4;4;
42410;PMS5003;28056;51.112;0.984;2024-02-15T10:20:26;4;4;
42410;PMS5003;28056;51.112;0.984;2024-02-15T10:22:58;4;4;
42410;PMS5003;28056;51.112;0.984;2024-02-15T10:25:36;4;4;
42410;PMS5003;28056;51.112;0.984;2024-02-15T10:28:04;7;5;
42410;PMS5003;28056;51.112;0.984;2024-02-15T10:30:33;7;7;
42410;PMS5003;28056;51.112;0.984;2024-02-15T10:33:00;3;3;
42410;PMS5003;28056;51.112;0.984;2024-02-15T10:35:28;8;4;
42410;PMS5003;28056;51.112;0.984;2024-02-15T10:38:04;4;4;
42410;PMS5003;28056;51.112;0.984;2024-02-15T10:40:33;4;4;
42410;PMS5003;28056;51.112;0.984;2024-02-15T10:43:02;6;4;
42410;PMS5003;28056;51.112;0.984;2024-02-15T10:45:30;5;3;
42410;PMS5003;28056;51.112;0.984;2024-02-15T10:47:58;6;4;
42410;PMS5003;28056;51.112;0.984;2024-02-15T10:50:26;8;5;
42410;PMS5003;28056;51.112;0.984;2024-02-15T10:52:54;5;5;
42410;PMS5003;28056;51.112;0.984;2024-02-15T10:55:26;4;4;
42410;PMS5003;28056;51.112;0.984;2024-02-15T10:58:05;4;3;
42410;PMS5003;28056;51.112;0.984;2024-02-15T11:00:40;11;8;
42410;PMS5003;28056;51.112;0.984;2024-02-15T11:03:10;7;4;
42410;PMS5003;28056;51.112;0.984;2024-02-15T11:05:45;7;7;
42410;PMS5003;28056;51.112;0.984;2024-02-15T11:08:13;3;3;
42410;PMS5003;28056;51.112;0.984;2024-02-15T11:10:42;8;5;
42410;PMS5003;28056;51.112;0.984;2024-02-15T11:13:09;7;5;
42410;PMS5003;28056;51.112;0.984;2024-02-15T11:15:42;4;4;
42410;PMS5003;28056;51.112;0.984;2024-02-15T11:18:11;4;3;
42410;PMS5003;28056;51.112;0.984;2024-02-15T11:20:47;4;4;
42410;PMS5003;28056;51.112;0.984;2024-02-15T11:23:31;5;4;
42410;PMS5003;28056;51.112;0.984;2024-02-15T11:26:04;2;2;
42410;PMS5003;28056;51.112;0.984;2024-02-15T11:28:36;5;5;
42410;PMS5003;28056;51.112;0.984;2024-02-15T11:31:05;4;4;
42410;PMS5003;28056;51.112;0.984;2024-02-15T11:33:35;8;5;
42410;PMS5003;28056;51.112;0.984;2024-02-15T11:36:04;8;4;
42410;PMS5003;28056;51.112;0.984;2024-02-15T11:38:32;5;4;
42410;PMS5003;28056;51.112;0.984;2024-02-15T11:41:01;7;5;
42410;PMS5003;28056;51.112;0.984;2024-02-15T11:44:02;14;14;
42410;PMS5003;28056;51.112;0.984;2024-02-15T11:46:29;25;21;
42410;PMS5003;28056;51.112;0.984;2024-02-15T11:48:57;11;8;
42410;PMS5003;28056;51.112;0.984;2024-02-15T11:51:26;13;8;
42410;PMS5003;28056;51.112;0.984;2024-02-15T11:53:58;8;7;
42410;PMS5003;28056;51.112;0.984;2024-02-15T11:56:27;5;5;
42410;PMS5003;28056;51.112;0.984;2024-02-15T11:59:03;8;7;
42410;PMS5003;28056;51.112;0.984;2024-02-15T12:01:33;4;4;
42410;PMS5003;28056;51.112;0.984;2024-02-15T12:04:00;4;4;
42410;PMS5003;28056;51.112;0.984;2024-02-15T12:06:27;5;5;
42410;PMS5003;28056;51.112;0.984;2024-02-15T12:08:55;3;3;
42410;PMS5003;28056;51.112;0.984;2024-02-15T12:11:23;3;3;
42410;PMS5003;28056;51.112;0.984;2024-02-15T12:13:51;5;5;
42410;PMS5003;28056;51.112;0.984;2024-02-15T12:16:19;9;4;
42410;PMS5003;28056;51.112;0.984;2024-02-15T12:18:47;4;4;
42410;PMS5003;28056;51.112;0.984;2024-02-15T12:21:16;5;4;
42410;PMS5003;28056;51.112;0.984;2024-02-15T12:23:45;4;4;
42410;PMS5003;28056;51.112;0.984;2024-02-15T12:26:13;2;2;
42410;PMS5003;28056;51.112;0.984;2024-02-15T12:28:41;4;3;
42410;PMS5003;28056;51.112;0.984;2024-02-15T12:31:09;2;2;
42410;PMS5003;28056;51.112;0.984;2024-02-15T12:33:37;3;3;
42410;PMS5003;28056;51.112;0.984;2024-02-15T12:36:05;4;4;
42410;PMS5003;28056;51.112;0.984;2024-02-15T12:38:33;3;3;
42410;PMS5003;28056;51.112;0.984;2024-02-15T12:41:01;3;3;
42410;PMS5003;28056;51.112;0.984;2024-02-15T12:43:33;5;3;
42410;PMS5003;28056;51.112;0.984;2024-02-15T12:46:04;3;3;
42410;PMS5003;28056;51.112;0.984;2024-02-15T12:48:31;5;3;
42410;PMS5003;28056;51.112;0.984;2024-02-15T12:51:12;5;3;
42410;PMS5003;28056;51.112;0.984;2024-02-15T12:53:41;4;4;
42410;PMS5003;28056;51.112;0.984;2024-02-15T12:56:08;5;3;
42410;PMS5003;28056;51.112;0.984;2024-02-15T12:58:37;5;3;
42410;PMS5003;28056;51.112;0.984;2024-02-15T13:01:06;3;3;
42410;PMS5003;28056;51.112;0.984;2024-02-15T13:03:39;6;6;
42410;PMS5003;28056;51.112;0.984;2024-02-15T13:06:13;4;3;
42410;PMS5003;28056;51.112;0.984;2024-02-15T13:08:46;3;3;
42410;PMS5003;28056;51.112;0.984;2024-02-15T13:11:13;4;4;
42410;PMS5003;28056;51.112;0.984;2024-02-15T13:13:41;4;4;
42410;PMS5003;28056;51.112;0.984;2024-02-15T13:16:10;5;4;
42410;PMS5003;28056;51.112;0.984;2024-02-15T13:18:38;4;3;
42410;PMS5003;28056;51.112;0.984;2024-02-15T13:21:05;3;3;
42410;PMS5003;28056;51.112;0.984;2024-02-15T13:23:38;4;4;
42410;PMS5003;28056;51.112;0.984;2024-02-15T13:26:15;4;4;
42410;PMS5003;28056;51.112;0.984;2024-02-15T13:28:48;4;4;
42410;PMS5003;28056;51.112;0.984;2024-02-15T13:31:21;7;4;
42410;PMS5003;28056;51.112;0.984;2024-02-15T13:33:49;9;4;
42410;PMS5003;28056;51.112;0.984;2024-02-15T13:36:17;6;5;
42410;PMS5003;28056;51.112;0.984;2024-02-15T13:38:44;5;5;
42410;PMS5003;28056;51.112;0.984;2024-02-15T13:41:16;5;5;
42410;PMS5003;28056;51.112;0.984;2024-02-15T13:43:44;5;5;
42410;PMS5003;28056;51.112;0.984;2024-02-15T13:46:12;6;5;
42410;PMS5003;28056;51.112;0.984;2024-02-15T13:48:39;4;4;
42410;PMS5003;28056;51.112;0.984;2024-02-15T13:51:07;5;5;
42410;PMS5003;28056;51.112;0.984;2024-02-15T13:53:35;4;4;
42410;PMS5003;28056;51.112;0.984;2024-02-15T13:56:02;5;4;
42410;PMS5003;28056;51.112;0.984;2024-02-15T13:58:30;5;4;
42410;PMS5003;28056;51.112;0.984;2024-02-15T14:00:57;3;3;
42410;PMS5003;28056;51.112;0.984;2024-02-15T14:03:25;6;5;
42410;PMS5003;28056;51.112;0.984;2024-02-15T14:05:52;7;4;
42410;PMS5003;28056;51.112;0.984;2024-02-15T14:08:20;5;5;
42410;PMS5003;28056;51.112;0.984;2024-02-15T14:10:48;4;4;
42410;PMS5003;28056;51.112;0.984;2024-02-15T14:13:15;5;5;
42410;PMS5003;28056;51.112;0.984;2024-02-15T14:15:42;9;6;
42410;PMS5003;28056;51.112;0.984;2024-02-15T14:18:11;5;4;
42410;PMS5003;28056;51.112;0.984;2024-02-15T14:20:39;4;4;
42410;PMS5003;28056;51.112;0.984;2024-02-15T14:23:06;10;10;
42410;PMS5003;28056;51.112;0.984;2024-02-15T14:25:34;6;5;
42410;PMS5003;28056;51.112;0.984;2024-02-15T14:28:02;5;5;
42410;PMS5003;28056;51.112;0.984;2024-02-15T14:30:30;10;9;
42410;PMS5003;28056;51.112;0.984;2024-02-15T14:33:03;4;4;
42410;PMS5003;28056;51.112;0.984;2024-02-15T14:35:32;5;5;
42410;PMS5003;28056;51.112;0.984;2024-02-15T14:38:02;6;5;
42410;PMS5003;28056;51.112;0.984;2024-02-15T14:40:32;5;5;
42410;PMS5003;28056;51.112;0.984;2024-02-15T14:43:01;5;4;
42410;PMS5003;28056;51.112;0.984;2024-02-15T14:45:30;4;4;
42410;PMS5003;28056;51.112;0.984;2024-02-15T14:47:58;10;4;
42410;PMS5003;28056;51.112;0.984;2024-02-15T14:50:26;4;3;
42410;PMS5003;28056;51.112;0.984;2024-02-15T14:52:54;5;5;
42410;PMS5003;28056;51.112;0.984;2024-02-15T14:55:22;5;3;
42410;PMS5003;28056;51.112;0.984;2024-02-15T14:57:50;5;5;
42410;PMS5003;28056;51.112;0.984;2024-02-15T15:00:17;4;4;
42410;PMS5003;28056;51.112;0.984;2024-02-15T15:02:50;5;5;
42410;PMS5003;28056;51.112;0.984;2024-02-15T15:05:23;3;3;
42410;PMS5003;28056;51.112;0.984;2024-02-15T15:07:52;4;4;
42410;PMS5003;28056;51.112;0.984;2024-02-15T15:10:26;5;4;
42410;PMS5003;28056;51.112;0.984;2024-02-15T15:12:54;8;6;
42410;PMS5003;28056;51.112;0.984;2024-02-15T15:15:23;5;4;
42410;PMS5003;28056;51.112;0.984;2024-02-15T15:17:51;9;8;
42410;PMS5003;28056;51.112;0.984;2024-02-15T15:20:20;6;6;
42410;PMS5003;28056;51.112;0.984;2024-02-15T15:22:53;4;4;
42410;PMS5003;28056;51.112;0.984;2024-02-15T15:25:20;4;4;
42410;PMS5003;28056;51.112;0.984;2024-02-15T15:27:51;4;4;
42410;PMS5003;28056;51.112;0.984;2024-02-15T15:30:28;4;4;
42410;PMS5003;28056;51.112;0.984;2024-02-15T15:33:05;3;3;
42410;PMS5003;28056;51.112;0.984;2024-02-15T15:35:37;2;2;
42410;PMS5003;28056;51.112;0.984;2024-02-15T15:38:10;6;5;
42410;PMS5003;28056;51.112;0.984;2024-02-15T15:40:47;3;3;
42410;PMS5003;28056;51.112;0.984;2024-02-15T15:43:24;5;3;
42410;PMS5003;28056;51.112;0.984;2024-02-15T15:45:57;5;5;
42410;PMS5003;28056;51.112;0.984;2024-02-15T15:48:31;4;4;
42410;PMS5003;28056;51.112;0.984;2024-02-15T15:51:03;4;4;
42410;PMS5003;28056;51.112;0.984;2024-02-15T15:53:36;3;3;
42410;PMS5003;28056;51.112;0.984;2024-02-15T15:56:14;5;5;
42410;PMS5003;28056;51.112;0.984;2024-02-15T15:58:46;6;6;
42410;PMS5003;28056;51.112;0.984;2024-02-15T16:01:14;4;3;
42410;PMS5003;28056;51.112;0.984;2024-02-15T16:03:48;3;3;
42410;PMS5003;28056;51.112;0.984;2024-02-15T16:06:25;5;5;
42410;PMS5003;28056;51.112;0.984;2024-02-15T16:08:57;3;3;
42410;PMS5003;28056;51.112;0.984;2024-02-15T16:11:29;4;4;
42410;PMS5003;28056;51.112;0.984;2024-02-15T16:14:02;5;4;
42410;PMS5003;28056;51.112;0.984;2024-02-15T16:16:30;5;3;
42410;PMS5003;28056;51.112;0.984;2024-02-15T16:18:58;4;4;
42410;PMS5003;28056;51.112;0.984;2024-02-15T16:21:25;7;4;
42410;PMS5003;28056;51.112;0.984;2024-02-15T16:23:53;7;5;
42410;PMS5003;28056;51.112;0.984;2024-02-15T16:26:21;7;3;
42410;PMS5003;28056;51.112;0.984;2024-02-15T16:28:48;4;4;
42410;PMS5003;28056;51.112;0.984;2024-02-15T16:31:16;4;4;
42410;PMS5003;28056;51.112;0.984;2024-02-15T16:33:44;3;3;
42410;PMS5003;28056;51.112;0.984;2024-02-15T16:36:12;7;5;
42410;PMS5003;28056;51.112;0.984;2024-02-15T16:38:40;4;4;
42410;PMS5003;28056;51.112;0.984;2024-02-15T16:41:07;5;4;
42410;PMS5003;28056;51.112;0.984;2024-02-15T16:43:35;4;4;
42410;PMS5003;28056;51.112;0.984;2024-02-15T16:46:02;3;3;
42410;PMS5003;28056;51.112;0.984;2024-02-15T16:48:30;7;4;
42410;PMS5003;28056;51.112;0.984;2024-02-15T16:50:58;4;3;
42410;PMS5003;28056;51.112;0.984;2024-02-15T16:53:25;5;5;
42410;PMS5003;28056;51.112;0.984;2024-02-15T16:55:53;4;4;
42410;PMS5003;28056;51.112;0.984;2024-02-15T16:58:21;3;3;
42410;PMS5003;28056;51.112;0.984;2024-02-15T17:00:48;4;4;